sensor_id;sensor_type;location;lat;lon;timestamp;temperature;humidity
20384;DHT22;46458;50.966;7.002;2023-04-08T00:01:04;9.50;99.90
20384;DHT22;46458;50.966;7.002;2023-04-08T00:03:33;9.50;99.90
20384;DHT22;46458;50.966;7.002;2023-04-08T00:06:01;9.60;99.90
20384;DHT22;46458;50.966;7.002;2023-04-08T00:08:30;9.60;99.90
20384;DHT22;46458;50.966;7.002;2023-04-08T00:10:59;9.60;99.90
20384;DHT22;46458;50.966;7.002;2023-04-08T00:13:30;9.60;99.90
20384;DHT22;46458;50.966;7.002;2023-04-08T00:15:59;9.60;99.90
20384;DHT22;46458;50.966;7.002;2023-04-08T00:18:28;9.60;99.90
20384;DHT22;46458;50.966;7.002;2023-04-08T00:20:57;9.50;99.90
20384;DHT22;46458;50.966;7.002;2023-04-08T00:23:26;9.50;99.90
20384;DHT22;46458;50.966;7.002;2023-04-08T00:25:55;9.40;99.90
20384;DHT22;46458;50.966;7.002;2023-04-08T00:28:26;9.40;99.90
20384;DHT22;46458;50.966;7.002;2023-04-08T00:30:58;9.40;99.90
20384;DHT22;46458;50.966;7.002;2023-04-08T00:33:29;9.50;99.90
20384;DHT22;46458;50.966;7.002;2023-04-08T00:35:58;9.40;99.90
20384;DHT22;46458;50.966;7.002;2023-04-08T00:38:27;9.50;99.90
20384;DHT22;46458;50.966;7.002;2023-04-08T00:41:00;9.50;99.90
20384;DHT22;46458;50.966;7.002;2023-04-08T00:43:28;9.50;99.90
20384;DHT22;46458;50.966;7.002;2023-04-08T00:46:00;9.50;99.90
20384;DHT22;46458;50.966;7.002;2023-04-08T00:48:29;9.50;99.90
20384;DHT22;46458;50.966;7.002;2023-04-08T00:50:58;9.50;99.90
20384;DHT22;46458;50.966;7.002;2023-04-08T00:53:30;9.60;99.90
20384;DHT22;46458;50.966;7.002;2023-04-08T00:55:59;9.50;99.90
20384;DHT22;46458;50.966;7.002;2023-04-08T00:58:28;9.60;99.90
20384;DHT22;46458;50.966;7.002;2023-04-08T01:01:04;9.60;99.90
20384;DHT22;46458;50.966;7.002;2023-04-08T01:03:41;9.60;99.90
20384;DHT22;46458;50.966;7.002;2023-04-08T01:06:17;9.50;99.90
20384;DHT22;46458;50.966;7.002;2023-04-08T01:08:48;9.50;99.90
20384;DHT22;46458;50.966;7.002;2023-04-08T01:11:19;9.50;99.90
20384;DHT22;46458;50.966;7.002;2023-04-08T01:13:51;9.50;99.90
20384;DHT22;46458;50.966;7.002;2023-04-08T01:16:25;9.60;99.90
20384;DHT22;46458;50.966;7.002;2023-04-08T01:18:57;9.50;99.90
20384;DHT22;46458;50.966;7.002;2023-04-08T01:21:27;9.60;99.90
20384;DHT22;46458;50.966;7.002;2023-04-08T01:24:03;9.60;99.90
20384;DHT22;46458;50.966;7.002;2023-04-08T01:26:37;9.50;99.90
20384;DHT22;46458;50.966;7.002;2023-04-08T01:29:10;9.50;99.90
20384;DHT22;46458;50.966;7.002;2023-04-08T01:31:40;9.60;99.90
20384;DHT22;46458;50.966;7.002;2023-04-08T01:34:10;9.50;99.90
20384;DHT22;46458;50.966;7.002;2023-04-08T01:36:43;9.60;99.90
20384;DHT22;46458;50.966;7.002;2023-04-08T01:39:14;9.60;99.90
20384;DHT22;46458;50.966;7.002;2023-04-08T01:41:49;9.60;99.90
20384;DHT22;46458;50.966;7.002;2023-04-08T01:44:26;9.40;99.90
20384;DHT22;46458;50.966;7.002;2023-04-08T01:46:58;9.40;99.90
20384;DHT22;46458;50.966;7.002;2023-04-08T01:49:28;9.50;99.90
20384;DHT22;46458;50.966;7.002;2023-04-08T01:51:59;9.40;99.90
20384;DHT22;46458;50.966;7.002;2023-04-08T01:54:33;9.50;99.90
20384;DHT22;46458;50.966;7.002;2023-04-08T01:57:09;9.40;99.90
20384;DHT22;46458;50.966;7.002;2023-04-08T01:59:39;9.50;99.90
20384;DHT22;46458;50.966;7.002;2023-04-08T02:02:13;9.50;99.90
20384;DHT22;46458;50.966;7.002;2023-04-08T02:04:43;9.50;99.90
20384;DHT22;46458;50.966;7.002;2023-04-08T02:07:12;9.50;99.90
20384;DHT22;46458;50.966;7.002;2023-04-08T02:09:42;9.50;99.90
20384;DHT22;46458;50.966;7.002;2023-04-08T02:12:13;9.50;99.90
20384;DHT22;46458;50.966;7.002;2023-04-08T02:14:45;9.50;99.90
20384;DHT22;46458;50.966;7.002;2023-04-08T02:17:22;9.50;99.90
20384;DHT22;46458;50.966;7.002;2023-04-08T02:19:58;9.50;99.90
20384;DHT22;46458;50.966;7.002;2023-04-08T02:22:34;9.40;99.90
20384;DHT22;46458;50.966;7.002;2023-04-08T02:25:09;9.40;99.90
20384;DHT22;46458;50.966;7.002;2023-04-08T02:27:42;9.40;99.90
20384;DHT22;46458;50.966;7.002;2023-04-08T02:30:13;9.40;99.90
20384;DHT22;46458;50.966;7.002;2023-04-08T02:32:46;9.40;99.90
20384;DHT22;46458;50.966;7.002;2023-04-08T02:35:16;9.40;99.90
20384;DHT22;46458;50.966;7.002;2023-04-08T02:37:46;9.40;99.90
20384;DHT22;46458;50.966;7.002;2023-04-08T02:40:23;9.40;99.90
20384;DHT22;46458;50.966;7.002;2023-04-08T02:42:58;9.40;99.90
20384;DHT22;46458;50.966;7.002;2023-04-08T02:45:29;9.40;99.90
20384;DHT22;46458;50.966;7.002;2023-04-08T02:47:59;9.30;99.90
20384;DHT22;46458;50.966;7.002;2023-04-08T02:50:28;9.40;99.90
20384;DHT22;46458;50.966;7.002;2023-04-08T02:53:00;9.30;99.90
20384;DHT22;46458;50.966;7.002;2023-04-08T02:55:31;9.30;99.90
20384;DHT22;46458;50.966;7.002;2023-04-08T02:58:02;9.20;99.90
20384;DHT22;46458;50.966;7.002;2023-04-08T03:00:31;9.20;99.90
20384;DHT22;46458;50.966;7.002;2023-04-08T03:03:03;9.30;99.90
20384;DHT22;46458;50.966;7.002;2023-04-08T03:05:35;9.30;99.90
20384;DHT22;46458;50.966;7.002;2023-04-08T03:08:03;9.30;99.90
20384;DHT22;46458;50.966;7.002;2023-04-08T03:10:32;9.30;99.90
20384;DHT22;46458;50.966;7.002;2023-04-08T03:13:04;9.30;99.90
20384;DHT22;46458;50.966;7.002;2023-04-08T03:15:32;9.30;99.90
20384;DHT22;46458;50.966;7.002;2023-04-08T03:18:01;9.10;99.90
20384;DHT22;46458;50.966;7.002;2023-04-08T03:20:33;9.20;99.90
20384;DHT22;46458;50.966;7.002;2023-04-08T03:23:02;9.10;99.90
20384;DHT22;46458;50.966;7.002;2023-04-08T03:25:31;9.10;99.90
20384;DHT22;46458;50.966;7.002;2023-04-08T03:28:03;9.20;99.90
20384;DHT22;46458;50.966;7.002;2023-04-08T03:30:31;9.20;99.90
20384;DHT22;46458;50.966;7.002;2023-04-08T03:33:00;9.20;99.90
20384;DHT22;46458;50.966;7.002;2023-04-08T03:35:32;9.30;99.90
20384;DHT22;46458;50.966;7.002;2023-04-08T03:38:02;9.30;99.90
20384;DHT22;46458;50.966;7.002;2023-04-08T03:40:31;9.20;99.90
20384;DHT22;46458;50.966;7.002;2023-04-08T03:42:59;9.10;99.90
20384;DHT22;46458;50.966;7.002;2023-04-08T03:45:33;9.10;99.90
20384;DHT22;46458;50.966;7.002;2023-04-08T03:48:03;9.10;99.90
20384;DHT22;46458;50.966;7.002;2023-04-08T03:50:35;9.10;99.90
20384;DHT22;46458;50.966;7.002;2023-04-08T03:53:03;9.10;99.90
20384;DHT22;46458;50.966;7.002;2023-04-08T03:55:36;9.10;99.90
20384;DHT22;46458;50.966;7.002;2023-04-08T03:58:04;9.10;99.90
20384;DHT22;46458;50.966;7.002;2023-04-08T04:00:37;9.10;99.90
20384;DHT22;46458;50.966;7.002;2023-04-08T04:03:06;9.10;99.90
20384;DHT22;46458;50.966;7.002;2023-04-08T04:05:37;9.10;99.90
20384;DHT22;46458;50.966;7.002;2023-04-08T04:08:06;9.10;99.90
20384;DHT22;46458;50.966;7.002;2023-04-08T04:10:35;9.10;99.90
20384;DHT22;46458;50.966;7.002;2023-04-08T04:13:04;9.10;99.90
20384;DHT22;46458;50.966;7.002;2023-04-08T04:15:39;9.10;99.90
20384;DHT22;46458;50.966;7.002;2023-04-08T04:18:11;9.10;99.90
20384;DHT22;46458;50.966;7.002;2023-04-08T04:20:40;9.10;99.90
20384;DHT22;46458;50.966;7.002;2023-04-08T04:23:09;9.20;99.90
20384;DHT22;46458;50.966;7.002;2023-04-08T04:25:40;9.20;99.90
20384;DHT22;46458;50.966;7.002;2023-04-08T04:28:09;9.10;99.90
20384;DHT22;46458;50.966;7.002;2023-04-08T04:30:41;9.20;99.90
20384;DHT22;46458;50.966;7.002;2023-04-08T04:33:10;9.20;99.90
20384;DHT22;46458;50.966;7.002;2023-04-08T04:35:39;9.20;99.90
20384;DHT22;46458;50.966;7.002;2023-04-08T04:38:09;9.20;99.90
20384;DHT22;46458;50.966;7.002;2023-04-08T04:40:38;9.10;99.90
20384;DHT22;46458;50.966;7.002;2023-04-08T04:43:07;9.20;99.90
20384;DHT22;46458;50.966;7.002;2023-04-08T04:45:36;9.20;99.90
20384;DHT22;46458;50.966;7.002;2023-04-08T04:48:08;9.20;99.90
20384;DHT22;46458;50.966;7.002;2023-04-08T04:50:36;9.20;99.90
20384;DHT22;46458;50.966;7.002;2023-04-08T04:53:06;9.20;99.90
20384;DHT22;46458;50.966;7.002;2023-04-08T04:55:34;9.20;99.90
20384;DHT22;46458;50.966;7.002;2023-04-08T04:58:03;9.20;99.90
20384;DHT22;46458;50.966;7.002;2023-04-08T05:00:32;9.10;99.90
20384;DHT22;46458;50.966;7.002;2023-04-08T05:03:01;9.10;99.90
20384;DHT22;46458;50.966;7.002;2023-04-08T05:05:32;9.10;99.90
20384;DHT22;46458;50.966;7.002;2023-04-08T05:08:03;9.10;99.90
20384;DHT22;46458;50.966;7.002;2023-04-08T05:10:32;9.10;99.90
20384;DHT22;46458;50.966;7.002;2023-04-08T05:13:00;9.10;99.90
20384;DHT22;46458;50.966;7.002;2023-04-08T05:15:29;9.10;99.90
20384;DHT22;46458;50.966;7.002;2023-04-08T05:17:59;9.20;99.90
20384;DHT22;46458;50.966;7.002;2023-04-08T05:20:28;9.20;99.90
20384;DHT22;46458;50.966;7.002;2023-04-08T05:23:00;9.10;99.90
20384;DHT22;46458;50.966;7.002;2023-04-08T05:25:29;9.10;99.90
20384;DHT22;46458;50.966;7.002;2023-04-08T05:27:58;9.10;99.90
20384;DHT22;46458;50.966;7.002;2023-04-08T05:30:26;9.10;99.90
20384;DHT22;46458;50.966;7.002;2023-04-08T05:32:55;9.10;99.90
20384;DHT22;46458;50.966;7.002;2023-04-08T05:35:24;9.10;99.90
20384;DHT22;46458;50.966;7.002;2023-04-08T05:37:59;9.10;99.90
20384;DHT22;46458;50.966;7.002;2023-04-08T05:40:27;9.10;99.90
20384;DHT22;46458;50.966;7.002;2023-04-08T05:42:56;9.20;99.90
20384;DHT22;46458;50.966;7.002;2023-04-08T05:45:26;9.20;99.90
20384;DHT22;46458;50.966;7.002;2023-04-08T05:47:56;9.20;99.90
20384;DHT22;46458;50.966;7.002;2023-04-08T05:50:25;9.30;99.90
20384;DHT22;46458;50.966;7.002;2023-04-08T05:52:54;9.20;99.90
20384;DHT22;46458;50.966;7.002;2023-04-08T05:55:25;9.20;99.90
20384;DHT22;46458;50.966;7.002;2023-04-08T05:57:54;9.20;99.90
20384;DHT22;46458;50.966;7.002;2023-04-08T06:00:26;9.20;99.90
20384;DHT22;46458;50.966;7.002;2023-04-08T06:02:55;9.10;99.90
20384;DHT22;46458;50.966;7.002;2023-04-08T06:05:24;9.10;99.90
20384;DHT22;46458;50.966;7.002;2023-04-08T06:07:52;9.10;99.90
20384;DHT22;46458;50.966;7.002;2023-04-08T06:10:25;9.10;99.90
20384;DHT22;46458;50.966;7.002;2023-04-08T06:12:53;9.10;99.90
20384;DHT22;46458;50.966;7.002;2023-04-08T06:15:22;9.10;99.90
20384;DHT22;46458;50.966;7.002;2023-04-08T06:17:54;9.10;99.90
20384;DHT22;46458;50.966;7.002;2023-04-08T06:20:23;9.10;99.90
20384;DHT22;46458;50.966;7.002;2023-04-08T06:22:53;9.10;99.90
20384;DHT22;46458;50.966;7.002;2023-04-08T06:25:27;9.10;99.90
20384;DHT22;46458;50.966;7.002;2023-04-08T06:27:56;9.10;99.90
20384;DHT22;46458;50.966;7.002;2023-04-08T06:30:25;9.20;99.90
20384;DHT22;46458;50.966;7.002;2023-04-08T06:32:54;9.20;99.90
20384;DHT22;46458;50.966;7.002;2023-04-08T06:35:23;9.30;99.90
20384;DHT22;46458;50.966;7.002;2023-04-08T06:37:52;9.40;99.90
20384;DHT22;46458;50.966;7.002;2023-04-08T06:40:29;9.40;99.90
20384;DHT22;46458;50.966;7.002;2023-04-08T06:42:58;9.50;99.90
20384;DHT22;46458;50.966;7.002;2023-04-08T06:45:33;9.60;99.90
20384;DHT22;46458;50.966;7.002;2023-04-08T06:48:02;9.70;99.90
20384;DHT22;46458;50.966;7.002;2023-04-08T06:50:31;9.80;99.90
20384;DHT22;46458;50.966;7.002;2023-04-08T06:53:01;9.70;99.90
20384;DHT22;46458;50.966;7.002;2023-04-08T06:55:32;9.70;99.90
20384;DHT22;46458;50.966;7.002;2023-04-08T06:58:01;9.70;99.90
20384;DHT22;46458;50.966;7.002;2023-04-08T07:00:29;9.80;99.90
20384;DHT22;46458;50.966;7.002;2023-04-08T07:03:01;9.70;99.90
20384;DHT22;46458;50.966;7.002;2023-04-08T07:05:30;9.80;99.90
20384;DHT22;46458;50.966;7.002;2023-04-08T07:07:59;9.80;99.90
20384;DHT22;46458;50.966;7.002;2023-04-08T07:10:28;9.90;99.90
20384;DHT22;46458;50.966;7.002;2023-04-08T07:12:59;9.80;99.90
20384;DHT22;46458;50.966;7.002;2023-04-08T07:15:30;9.80;99.90
20384;DHT22;46458;50.966;7.002;2023-04-08T07:17:59;9.70;99.90
20384;DHT22;46458;50.966;7.002;2023-04-08T07:20:29;9.80;99.90
20384;DHT22;46458;50.966;7.002;2023-04-08T07:23:00;9.80;99.90
20384;DHT22;46458;50.966;7.002;2023-04-08T07:25:29;9.90;99.90
20384;DHT22;46458;50.966;7.002;2023-04-08T07:28:00;10.00;99.90
20384;DHT22;46458;50.966;7.002;2023-04-08T07:30:32;10.10;99.90
20384;DHT22;46458;50.966;7.002;2023-04-08T07:33:01;10.40;99.90
20384;DHT22;46458;50.966;7.002;2023-04-08T07:35:30;10.50;99.90
20384;DHT22;46458;50.966;7.002;2023-04-08T07:37:59;10.60;99.90
20384;DHT22;46458;50.966;7.002;2023-04-08T07:40:28;10.60;99.90
20384;DHT22;46458;50.966;7.002;2023-04-08T07:42:57;10.60;99.90
20384;DHT22;46458;50.966;7.002;2023-04-08T07:45:28;10.70;99.90
20384;DHT22;46458;50.966;7.002;2023-04-08T07:47:57;10.70;99.90
20384;DHT22;46458;50.966;7.002;2023-04-08T07:50:26;10.70;99.90
20384;DHT22;46458;50.966;7.002;2023-04-08T07:52:55;10.60;99.90
20384;DHT22;46458;50.966;7.002;2023-04-08T07:55:24;10.70;99.90
20384;DHT22;46458;50.966;7.002;2023-04-08T07:57:52;10.70;99.90
20384;DHT22;46458;50.966;7.002;2023-04-08T08:00:22;10.80;99.90
20384;DHT22;46458;50.966;7.002;2023-04-08T08:02:53;10.80;99.90
20384;DHT22;46458;50.966;7.002;2023-04-08T08:05:22;10.80;99.90
20384;DHT22;46458;50.966;7.002;2023-04-08T08:07:51;10.80;99.90
20384;DHT22;46458;50.966;7.002;2023-04-08T08:10:20;10.80;99.90
20384;DHT22;46458;50.966;7.002;2023-04-08T08:12:49;10.80;99.90
20384;DHT22;46458;50.966;7.002;2023-04-08T08:15:17;10.80;99.90
20384;DHT22;46458;50.966;7.002;2023-04-08T08:17:46;10.80;99.90
20384;DHT22;46458;50.966;7.002;2023-04-08T08:20:18;10.80;99.90
20384;DHT22;46458;50.966;7.002;2023-04-08T08:22:46;10.80;99.90
20384;DHT22;46458;50.966;7.002;2023-04-08T08:25:16;10.70;99.90
20384;DHT22;46458;50.966;7.002;2023-04-08T08:27:45;10.60;99.90
20384;DHT22;46458;50.966;7.002;2023-04-08T08:30:14;10.50;99.90
20384;DHT22;46458;50.966;7.002;2023-04-08T08:32:44;10.40;99.90
20384;DHT22;46458;50.966;7.002;2023-04-08T08:35:19;10.40;99.90
20384;DHT22;46458;50.966;7.002;2023-04-08T08:37:51;10.50;99.90
20384;DHT22;46458;50.966;7.002;2023-04-08T08:40:19;10.50;99.90
20384;DHT22;46458;50.966;7.002;2023-04-08T08:42:49;10.40;99.90
20384;DHT22;46458;50.966;7.002;2023-04-08T08:45:19;10.50;99.90
20384;DHT22;46458;50.966;7.002;2023-04-08T08:47:48;10.50;99.90
20384;DHT22;46458;50.966;7.002;2023-04-08T08:50:19;10.60;99.90
20384;DHT22;46458;50.966;7.002;2023-04-08T08:52:49;10.60;99.90
20384;DHT22;46458;50.966;7.002;2023-04-08T08:55:19;10.70;99.90
20384;DHT22;46458;50.966;7.002;2023-04-08T08:57:49;10.70;99.90
20384;DHT22;46458;50.966;7.002;2023-04-08T09:00:18;10.80;99.90
20384;DHT22;46458;50.966;7.002;2023-04-08T09:02:47;10.80;99.90
20384;DHT22;46458;50.966;7.002;2023-04-08T09:05:21;10.90;99.90
20384;DHT22;46458;50.966;7.002;2023-04-08T09:07:50;11.00;99.90
20384;DHT22;46458;50.966;7.002;2023-04-08T09:10:26;10.90;99.90
20384;DHT22;46458;50.966;7.002;2023-04-08T09:12:55;11.00;99.90
20384;DHT22;46458;50.966;7.002;2023-04-08T09:15:25;11.00;99.90
20384;DHT22;46458;50.966;7.002;2023-04-08T09:17:54;11.10;99.90
20384;DHT22;46458;50.966;7.002;2023-04-08T09:20:25;11.00;99.90
20384;DHT22;46458;50.966;7.002;2023-04-08T09:22:56;11.00;99.90
20384;DHT22;46458;50.966;7.002;2023-04-08T09:25:29;11.10;99.90
20384;DHT22;46458;50.966;7.002;2023-04-08T09:27:58;11.20;99.90
20384;DHT22;46458;50.966;7.002;2023-04-08T09:30:28;11.20;99.90
20384;DHT22;46458;50.966;7.002;2023-04-08T09:32:57;11.30;99.90
20384;DHT22;46458;50.966;7.002;2023-04-08T09:35:28;11.30;99.90
20384;DHT22;46458;50.966;7.002;2023-04-08T09:38:01;11.30;99.90
20384;DHT22;46458;50.966;7.002;2023-04-08T09:40:33;11.40;99.90
20384;DHT22;46458;50.966;7.002;2023-04-08T09:43:04;11.40;99.90
20384;DHT22;46458;50.966;7.002;2023-04-08T09:45:35;11.30;99.90
20384;DHT22;46458;50.966;7.002;2023-04-08T09:48:11;11.50;99.90
20384;DHT22;46458;50.966;7.002;2023-04-08T09:50:48;11.70;99.90
20384;DHT22;46458;50.966;7.002;2023-04-08T09:53:19;11.90;99.90
20384;DHT22;46458;50.966;7.002;2023-04-08T09:55:55;12.20;99.90
20384;DHT22;46458;50.966;7.002;2023-04-08T09:58:32;12.30;99.90
20384;DHT22;46458;50.966;7.002;2023-04-08T10:01:02;12.30;99.90
20384;DHT22;46458;50.966;7.002;2023-04-08T10:03:34;12.50;99.90
20384;DHT22;46458;50.966;7.002;2023-04-08T10:06:07;12.50;99.90
20384;DHT22;46458;50.966;7.002;2023-04-08T10:08:37;12.70;99.90
20384;DHT22;46458;50.966;7.002;2023-04-08T10:11:06;13.00;99.90
20384;DHT22;46458;50.966;7.002;2023-04-08T10:13:35;13.40;99.90
20384;DHT22;46458;50.966;7.002;2023-04-08T10:16:20;13.70;99.90
20384;DHT22;46458;50.966;7.002;2023-04-08T10:18:51;13.70;99.90
20384;DHT22;46458;50.966;7.002;2023-04-08T10:21:33;13.80;99.90
20384;DHT22;46458;50.966;7.002;2023-04-08T10:24:05;13.80;99.90
20384;DHT22;46458;50.966;7.002;2023-04-08T10:26:37;13.50;99.90
20384;DHT22;46458;50.966;7.002;2023-04-08T10:29:30;13.30;99.90
20384;DHT22;46458;50.966;7.002;2023-04-08T10:31:59;13.20;99.90
20384;DHT22;46458;50.966;7.002;2023-04-08T10:34:28;13.10;99.90
20384;DHT22;46458;50.966;7.002;2023-04-08T10:37:00;12.90;99.90
20384;DHT22;46458;50.966;7.002;2023-04-08T10:39:38;12.90;99.90
20384;DHT22;46458;50.966;7.002;2023-04-08T10:42:07;13.20;99.90
20384;DHT22;46458;50.966;7.002;2023-04-08T10:44:37;12.80;99.90
20384;DHT22;46458;50.966;7.002;2023-04-08T10:47:12;12.70;99.90
20384;DHT22;46458;50.966;7.002;2023-04-08T10:49:40;12.80;99.90
20384;DHT22;46458;50.966;7.002;2023-04-08T10:52:15;12.70;99.90
20384;DHT22;46458;50.966;7.002;2023-04-08T10:54:45;12.60;99.90
20384;DHT22;46458;50.966;7.002;2023-04-08T10:57:15;12.60;99.90
20384;DHT22;46458;50.966;7.002;2023-04-08T10:59:53;12.60;99.90
20384;DHT22;46458;50.966;7.002;2023-04-08T11:02:31;12.60;99.90
20384;DHT22;46458;50.966;7.002;2023-04-08T11:05:00;12.70;99.90
20384;DHT22;46458;50.966;7.002;2023-04-08T11:07:32;12.70;99.90
20384;DHT22;46458;50.966;7.002;2023-04-08T11:10:02;12.70;99.90
20384;DHT22;46458;50.966;7.002;2023-04-08T11:12:32;12.60;99.90
20384;DHT22;46458;50.966;7.002;2023-04-08T11:15:02;12.60;99.90
20384;DHT22;46458;50.966;7.002;2023-04-08T11:17:33;12.60;99.90
20384;DHT22;46458;50.966;7.002;2023-04-08T11:20:02;12.60;99.90
20384;DHT22;46458;50.966;7.002;2023-04-08T11:22:35;12.60;99.90
20384;DHT22;46458;50.966;7.002;2023-04-08T11:25:05;12.80;99.90
20384;DHT22;46458;50.966;7.002;2023-04-08T11:27:35;12.80;99.90
20384;DHT22;46458;50.966;7.002;2023-04-08T11:30:09;12.70;99.90
20384;DHT22;46458;50.966;7.002;2023-04-08T11:32:38;12.70;99.90
20384;DHT22;46458;50.966;7.002;2023-04-08T11:35:07;12.60;99.90
20384;DHT22;46458;50.966;7.002;2023-04-08T11:37:40;12.60;99.90
20384;DHT22;46458;50.966;7.002;2023-04-08T11:40:12;12.70;99.90
20384;DHT22;46458;50.966;7.002;2023-04-08T11:42:48;12.70;99.90
20384;DHT22;46458;50.966;7.002;2023-04-08T11:45:18;12.60;99.90
20384;DHT22;46458;50.966;7.002;2023-04-08T11:47:50;12.60;99.90
20384;DHT22;46458;50.966;7.002;2023-04-08T11:50:23;12.60;99.90
20384;DHT22;46458;50.966;7.002;2023-04-08T11:52:57;12.50;99.90
20384;DHT22;46458;50.966;7.002;2023-04-08T11:55:28;12.50;99.90
20384;DHT22;46458;50.966;7.002;2023-04-08T11:58:01;12.50;99.90
20384;DHT22;46458;50.966;7.002;2023-04-08T12:00:31;12.50;99.90
20384;DHT22;46458;50.966;7.002;2023-04-08T12:02:59;12.60;99.90
20384;DHT22;46458;50.966;7.002;2023-04-08T12:05:28;12.60;99.90
20384;DHT22;46458;50.966;7.002;2023-04-08T12:08:00;12.70;99.90
20384;DHT22;46458;50.966;7.002;2023-04-08T12:10:29;12.70;99.90
20384;DHT22;46458;50.966;7.002;2023-04-08T12:13:00;12.80;99.90
20384;DHT22;46458;50.966;7.002;2023-04-08T12:15:29;12.80;99.90
20384;DHT22;46458;50.966;7.002;2023-04-08T12:17:58;12.90;99.90
20384;DHT22;46458;50.966;7.002;2023-04-08T12:20:27;13.00;99.90
20384;DHT22;46458;50.966;7.002;2023-04-08T12:22:58;13.00;99.90
20384;DHT22;46458;50.966;7.002;2023-04-08T12:25:27;12.90;99.90
20384;DHT22;46458;50.966;7.002;2023-04-08T12:27:56;13.00;99.90
20384;DHT22;46458;50.966;7.002;2023-04-08T12:30:26;13.00;99.90
20384;DHT22;46458;50.966;7.002;2023-04-08T12:32:55;13.00;99.90
20384;DHT22;46458;50.966;7.002;2023-04-08T12:35:24;13.00;99.90
20384;DHT22;46458;50.966;7.002;2023-04-08T12:37:53;12.90;99.90
20384;DHT22;46458;50.966;7.002;2023-04-08T12:40:24;12.90;99.90
20384;DHT22;46458;50.966;7.002;2023-04-08T12:42:56;12.80;99.90
20384;DHT22;46458;50.966;7.002;2023-04-08T12:45:25;12.70;99.90
20384;DHT22;46458;50.966;7.002;2023-04-08T12:47:53;12.70;99.90
20384;DHT22;46458;50.966;7.002;2023-04-08T12:50:22;12.60;99.90
20384;DHT22;46458;50.966;7.002;2023-04-08T12:52:51;12.50;99.90
20384;DHT22;46458;50.966;7.002;2023-04-08T12:55:25;12.50;99.90
20384;DHT22;46458;50.966;7.002;2023-04-08T12:57:54;12.60;99.90
20384;DHT22;46458;50.966;7.002;2023-04-08T13:00:23;12.80;99.90
20384;DHT22;46458;50.966;7.002;2023-04-08T13:02:52;13.00;99.90
20384;DHT22;46458;50.966;7.002;2023-04-08T13:05:21;13.00;99.90
20384;DHT22;46458;50.966;7.002;2023-04-08T13:07:50;13.10;99.90
20384;DHT22;46458;50.966;7.002;2023-04-08T13:10:18;13.20;99.90
20384;DHT22;46458;50.966;7.002;2023-04-08T13:12:53;13.30;99.90
20384;DHT22;46458;50.966;7.002;2023-04-08T13:15:23;13.30;99.90
20384;DHT22;46458;50.966;7.002;2023-04-08T13:17:52;13.60;99.90
20384;DHT22;46458;50.966;7.002;2023-04-08T13:20:20;13.80;99.90
20384;DHT22;46458;50.966;7.002;2023-04-08T13:22:53;13.80;99.90
20384;DHT22;46458;50.966;7.002;2023-04-08T13:25:25;13.90;99.90
20384;DHT22;46458;50.966;7.002;2023-04-08T13:27:56;14.00;99.90
20384;DHT22;46458;50.966;7.002;2023-04-08T13:30:25;13.90;99.90
20384;DHT22;46458;50.966;7.002;2023-04-08T13:32:54;13.80;99.90
20384;DHT22;46458;50.966;7.002;2023-04-08T13:35:29;13.60;99.90
20384;DHT22;46458;50.966;7.002;2023-04-08T13:37:58;13.50;99.90
20384;DHT22;46458;50.966;7.002;2023-04-08T13:40:27;13.40;99.90
20384;DHT22;46458;50.966;7.002;2023-04-08T13:43:02;13.40;99.90
20384;DHT22;46458;50.966;7.002;2023-04-08T13:45:33;13.50;99.90
20384;DHT22;46458;50.966;7.002;2023-04-08T13:48:02;13.40;99.90
20384;DHT22;46458;50.966;7.002;2023-04-08T13:50:31;13.40;99.90
20384;DHT22;46458;50.966;7.002;2023-04-08T13:53:03;13.50;99.90
20384;DHT22;46458;50.966;7.002;2023-04-08T13:55:35;13.50;99.90
20384;DHT22;46458;50.966;7.002;2023-04-08T13:58:09;13.50;99.90
20384;DHT22;46458;50.966;7.002;2023-04-08T14:00:38;13.50;99.90
20384;DHT22;46458;50.966;7.002;2023-04-08T14:03:06;13.70;99.90
20384;DHT22;46458;50.966;7.002;2023-04-08T14:05:35;13.80;99.90
20384;DHT22;46458;50.966;7.002;2023-04-08T14:08:05;13.80;99.90
20384;DHT22;46458;50.966;7.002;2023-04-08T14:10:34;13.60;99.90
20384;DHT22;46458;50.966;7.002;2023-04-08T14:13:03;13.50;99.90
20384;DHT22;46458;50.966;7.002;2023-04-08T14:15:34;13.60;99.90
20384;DHT22;46458;50.966;7.002;2023-04-08T14:18:05;13.60;99.90
20384;DHT22;46458;50.966;7.002;2023-04-08T14:20:34;13.60;99.90
20384;DHT22;46458;50.966;7.002;2023-04-08T14:23:03;13.70;99.90
20384;DHT22;46458;50.966;7.002;2023-04-08T14:25:32;13.70;99.90
20384;DHT22;46458;50.966;7.002;2023-04-08T14:28:01;13.70;99.90
20384;DHT22;46458;50.966;7.002;2023-04-08T14:30:31;13.70;99.90
20384;DHT22;46458;50.966;7.002;2023-04-08T14:33:03;13.80;99.90
20384;DHT22;46458;50.966;7.002;2023-04-08T14:35:32;14.30;99.90
20384;DHT22;46458;50.966;7.002;2023-04-08T14:38:01;14.80;99.90
20384;DHT22;46458;50.966;7.002;2023-04-08T14:40:32;15.20;99.90
20384;DHT22;46458;50.966;7.002;2023-04-08T14:43:01;15.70;99.90
20384;DHT22;46458;50.966;7.002;2023-04-08T14:45:30;16.20;99.90
20384;DHT22;46458;50.966;7.002;2023-04-08T14:48:01;16.20;99.90
20384;DHT22;46458;50.966;7.002;2023-04-08T14:50:30;16.10;99.90
20384;DHT22;46458;50.966;7.002;2023-04-08T14:52:59;15.80;99.90
20384;DHT22;46458;50.966;7.002;2023-04-08T14:55:28;15.80;99.90
20384;DHT22;46458;50.966;7.002;2023-04-08T14:57:57;15.80;99.90
20384;DHT22;46458;50.966;7.002;2023-04-08T15:00:26;15.80;99.90
20384;DHT22;46458;50.966;7.002;2023-04-08T15:02:54;16.00;99.90
20384;DHT22;46458;50.966;7.002;2023-04-08T15:05:26;16.30;99.90
20384;DHT22;46458;50.966;7.002;2023-04-08T15:07:55;16.60;99.90
20384;DHT22;46458;50.966;7.002;2023-04-08T15:12:55;17.00;99.90
20384;DHT22;46458;50.966;7.002;2023-04-08T15:15:24;17.10;99.90
20384;DHT22;46458;50.966;7.002;2023-04-08T15:17:52;16.90;99.90
20384;DHT22;46458;50.966;7.002;2023-04-08T15:20:21;16.30;99.90
20384;DHT22;46458;50.966;7.002;2023-04-08T15:22:53;16.00;99.90
20384;DHT22;46458;50.966;7.002;2023-04-08T15:25:22;15.90;99.90
20384;DHT22;46458;50.966;7.002;2023-04-08T15:27:51;15.60;99.90
20384;DHT22;46458;50.966;7.002;2023-04-08T15:30:19;15.40;99.90
20384;DHT22;46458;50.966;7.002;2023-04-08T15:32:50;15.30;99.90
20384;DHT22;46458;50.966;7.002;2023-04-08T15:35:19;15.00;99.90
20384;DHT22;46458;50.966;7.002;2023-04-08T15:37:48;14.80;99.90
20384;DHT22;46458;50.966;7.002;2023-04-08T15:40:31;14.70;99.90
20384;DHT22;46458;50.966;7.002;2023-04-08T15:43:00;14.50;99.90
20384;DHT22;46458;50.966;7.002;2023-04-08T15:45:29;14.30;99.90
20384;DHT22;46458;50.966;7.002;2023-04-08T15:47:58;14.10;99.90
20384;DHT22;46458;50.966;7.002;2023-04-08T15:50:27;14.00;99.90
20384;DHT22;46458;50.966;7.002;2023-04-08T15:52:57;14.00;99.90
20384;DHT22;46458;50.966;7.002;2023-04-08T15:55:36;13.90;99.90
20384;DHT22;46458;50.966;7.002;2023-04-08T15:58:05;13.70;99.90
20384;DHT22;46458;50.966;7.002;2023-04-08T16:00:37;13.70;99.90